Time;durP1;ratioP1;P1;durP2;ratioP2;P2;SDS_P1;SDS_P2;PMS_P1;PMS_P2;Temp;Humidity;BMP_temperature;BMP_pressure;BME280_temperature;BME280_humidity;BME280_pressure;Samples;Min_cycle;Max_cycle;Signal;HPM_P1;HPM_P2
2021/07/01 00:02:00;;;;;;;3.03;0.82;;;12.40;99.90;;;;;;5010628;28;20099;-76
2021/07/01 00:04:26;;;;;;;0.82;0.68;;;12.40;99.90;;;;;;5034075;28;20221;-76
2021/07/01 00:06:52;;;;;;;0.98;0.70;;;12.40;99.90;;;;;;5028681;28;20037;-76
2021/07/01 00:09:21;;;;;;;2.17;0.80;;;12.30;99.90;;;;;;5030756;28;20470;-76
2021/07/01 00:11:48;;;;;;;1.15;0.90;;;12.20;99.90;;;;;;5040888;28;20044;-75
2021/07/01 00:14:18;;;;;;;1.13;0.80;;;12.30;99.90;;;;;;5042520;28;20579;-76
2021/07/01 00:16:43;;;;;;;3.78;0.95;;;12.30;99.90;;;;;;5010708;28;20032;-75
2021/07/01 00:19:09;;;;;;;1.00;0.90;;;12.30;99.90;;;;;;5028376;28;20041;-76
2021/07/01 00:21:35;;;;;;;1.10;0.68;;;12.30;99.90;;;;;;5034110;28;20029;-76
2021/07/01 00:24:00;;;;;;;1.33;0.82;;;12.40;99.90;;;;;;5028021;28;20038;-76
2021/07/01 00:26:26;;;;;;;1.08;0.98;;;12.30;99.90;;;;;;5016653;28;20026;-72
2021/07/01 00:28:51;;;;;;;1.58;0.93;;;12.30;99.90;;;;;;5054189;28;20029;-73
2021/07/01 00:31:17;;;;;;;2.30;1.00;;;12.30;99.90;;;;;;5049721;28;20025;-75
2021/07/01 00:33:43;;;;;;;1.48;1.23;;;12.20;99.90;;;;;;5052711;28;20039;-73
2021/07/01 00:36:09;;;;;;;1.25;0.98;;;12.20;99.90;;;;;;5036567;28;20481;-72
2021/07/01 00:38:35;;;;;;;6.32;1.58;;;12.20;99.90;;;;;;5054427;28;20106;-73
2021/07/01 00:41:01;;;;;;;1.00;0.90;;;12.20;99.90;;;;;;5046570;28;20018;-73
2021/07/01 00:43:26;;;;;;;3.10;0.82;;;12.20;99.90;;;;;;5034436;28;20022;-72
2021/07/01 00:45:52;;;;;;;1.90;1.05;;;12.20;99.90;;;;;;5037431;28;20435;-75
2021/07/01 00:48:18;;;;;;;3.85;0.90;;;12.20;99.90;;;;;;5047543;28;20790;-75
2021/07/01 00:50:45;;;;;;;3.13;1.00;;;12.10;99.90;;;;;;5047546;28;20021;-75
2021/07/01 00:53:10;;;;;;;2.60;0.93;;;12.10;99.90;;;;;;5047632;28;20033;-75
2021/07/01 00:55:38;;;;;;;1.73;1.05;;;12.10;99.90;;;;;;5047474;28;20039;-75
2021/07/01 00:58:05;;;;;;;2.05;1.50;;;12.00;99.90;;;;;;5047326;28;20021;-75
2021/07/01 01:00:45;;;;;;;1.83;1.00;;;12.10;99.90;;;;;;5028942;28;20102;-75
2021/07/01 01:03:10;;;;;;;3.13;1.00;;;12.10;99.90;;;;;;5034708;28;20047;-75
2021/07/01 01:05:36;;;;;;;2.85;1.10;;;12.10;99.90;;;;;;5029327;28;20025;-75
2021/07/01 01:08:02;;;;;;;2.03;1.40;;;12.10;99.90;;;;;;5047079;28;20059;-76
2021/07/01 01:10:28;;;;;;;2.20;0.90;;;12.10;99.90;;;;;;5029130;28;20427;-75
2021/07/01 01:12:53;;;;;;;2.25;1.13;;;12.10;99.90;;;;;;5047109;28;20071;-76
2021/07/01 01:15:19;;;;;;;1.20;1.10;;;12.00;99.90;;;;;;5043484;28;20031;-75
2021/07/01 01:17:44;;;;;;;3.53;1.20;;;12.00;99.90;;;;;;5047002;28;20029;-75
2021/07/01 01:20:11;;;;;;;2.92;1.05;;;12.00;99.90;;;;;;5046898;28;20465;-75
2021/07/01 01:22:37;;;;;;;1.88;1.27;;;12.00;99.90;;;;;;5029404;28;20772;-75
2021/07/01 01:25:04;;;;;;;3.30;1.40;;;12.00;99.90;;;;;;5047030;28;20059;-76
2021/07/01 01:27:30;;;;;;;1.15;1.00;;;12.20;99.90;;;;;;5047091;28;20132;-75
2021/07/01 01:29:55;;;;;;;2.35;1.20;;;12.20;99.90;;;;;;5046555;28;20436;-75
2021/07/01 01:32:21;;;;;;;4.25;1.30;;;12.20;99.90;;;;;;5046330;28;20079;-75
2021/07/01 01:34:47;;;;;;;4.35;1.17;;;12.10;99.90;;;;;;5046316;28;20033;-75
2021/07/01 01:37:12;;;;;;;4.95;1.10;;;12.10;99.90;;;;;;5028686;28;20039;-75
2021/07/01 01:39:38;;;;;;;3.03;1.55;;;12.10;99.90;;;;;;5046632;28;20029;-75
2021/07/01 01:42:04;;;;;;;2.53;1.10;;;12.00;99.90;;;;;;5046561;28;20024;-75
2021/07/01 01:44:29;;;;;;;1.50;1.00;;;12.10;99.90;;;;;;5046550;28;20040;-75
2021/07/01 01:46:55;;;;;;;2.63;1.10;;;12.10;99.90;;;;;;5052058;28;20322;-72
2021/07/01 01:49:21;;;;;;;1.33;1.20;;;12.10;99.90;;;;;;5053255;28;20060;-72
2021/07/01 01:51:47;;;;;;;1.98;1.10;;;12.00;99.90;;;;;;5046844;28;20033;-76
2021/07/01 01:54:13;;;;;;;2.25;1.20;;;12.10;99.90;;;;;;5028127;28;20102;-76
2021/07/01 01:56:57;;;;;;;4.55;1.50;;;12.10;99.90;;;;;;5046461;28;20072;-76
2021/07/01 01:59:22;;;;;;;1.77;1.10;;;12.10;99.90;;;;;;5038719;28;20041;-76
2021/07/01 02:01:48;;;;;;;2.03;1.17;;;12.00;99.90;;;;;;5046359;28;20082;-75
2021/07/01 02:04:13;;;;;;;1.25;1.00;;;12.10;99.90;;;;;;5046217;28;20035;-76
2021/07/01 02:06:39;;;;;;;3.15;1.10;;;12.00;99.90;;;;;;5046688;28;20037;-76
2021/07/01 02:09:05;;;;;;;2.35;1.13;;;12.00;99.90;;;;;;5046019;28;20033;-75
2021/07/01 02:11:30;;;;;;;1.75;0.98;;;12.00;99.90;;;;;;5046078;28;20729;-76
2021/07/01 02:13:56;;;;;;;3.33;0.98;;;12.00;99.90;;;;;;5045822;28;20052;-75
2021/07/01 02:16:21;;;;;;;3.13;0.98;;;12.00;99.90;;;;;;5046162;28;20036;-76
2021/07/01 02:18:49;;;;;;;2.67;1.10;;;12.10;99.90;;;;;;5046112;28;20116;-77
2021/07/01 02:21:15;;;;;;;3.22;1.00;;;12.10;99.90;;;;;;5045881;28;20064;-76
2021/07/01 02:23:40;;;;;;;2.40;1.17;;;12.10;99.90;;;;;;5046015;28;20033;-76
2021/07/01 02:26:06;;;;;;;1.25;1.00;;;12.10;99.90;;;;;;5046018;28;20064;-76
2021/07/01 02:28:32;;;;;;;2.78;1.00;;;12.10;99.90;;;;;;5045791;28;20107;-76
2021/07/01 02:30:57;;;;;;;2.38;0.93;;;12.10;99.90;;;;;;5045879;28;20033;-76
2021/07/01 02:33:23;;;;;;;1.23;1.00;;;12.10;99.90;;;;;;5031546;28;20029;-76
2021/07/01 02:35:49;;;;;;;4.10;1.48;;;12.10;99.90;;;;;;5046507;28;20025;-76
2021/07/01 02:38:14;;;;;;;3.67;1.25;;;12.10;99.90;;;;;;5045985;28;20472;-76
2021/07/01 02:40:40;;;;;;;4.75;1.10;;;12.10;99.90;;;;;;5046029;28;20104;-76
2021/07/01 02:43:05;;;;;;;2.22;1.02;;;12.10;99.90;;;;;;5045993;28;20036;-75
2021/07/01 02:45:31;;;;;;;2.42;1.20;;;12.20;99.90;;;;;;5046934;28;20037;-75
2021/07/01 02:47:57;;;;;;;1.50;0.93;;;12.20;99.90;;;;;;5050058;28;20051;-75
2021/07/01 02:50:22;;;;;;;1.75;1.08;;;12.20;99.90;;;;;;5049542;28;20025;-76
2021/07/01 02:52:48;;;;;;;1.25;1.10;;;12.20;99.90;;;;;;5050301;28;20036;-76
2021/07/01 02:55:13;;;;;;;1.67;1.02;;;12.20;99.90;;;;;;5049628;28;20044;-76
2021/07/01 02:57:39;;;;;;;3.35;1.10;;;12.10;99.90;;;;;;5049806;28;20458;-75
2021/07/01 03:00:11;;;;;;;1.75;1.25;;;12.10;99.90;;;;;;5049524;28;20039;-76
2021/07/01 03:02:37;;;;;;;1.83;1.30;;;12.20;99.90;;;;;;5049647;28;20032;-76
2021/07/01 03:05:03;;;;;;;1.63;1.30;;;12.20;99.90;;;;;;5049808;28;20024;-76
2021/07/01 03:07:29;;;;;;;3.58;1.50;;;12.20;99.90;;;;;;5049396;28;20099;-76
2021/07/01 03:09:55;;;;;;;3.78;1.70;;;12.20;99.90;;;;;;5049554;28;20128;-76
2021/07/01 03:12:20;;;;;;;2.28;1.65;;;12.20;99.90;;;;;;5048620;28;20086;-76
2021/07/01 03:14:46;;;;;;;3.33;1.60;;;12.20;99.90;;;;;;5049188;28;20040;-76
2021/07/01 03:17:12;;;;;;;7.47;1.85;;;12.30;99.90;;;;;;5049388;28;20037;-76
2021/07/01 03:19:37;;;;;;;3.03;1.45;;;12.30;99.90;;;;;;5048918;28;20064;-76
2021/07/01 03:22:03;;;;;;;2.20;1.70;;;12.40;99.90;;;;;;5049381;28;20113;-76
2021/07/01 03:24:29;;;;;;;2.17;1.67;;;12.40;99.90;;;;;;5049353;28;20068;-76
2021/07/01 03:26:54;;;;;;;3.88;1.60;;;12.40;99.90;;;;;;5049310;28;20025;-75
2021/07/01 03:29:20;;;;;;;2.83;1.60;;;12.50;99.90;;;;;;5048992;28;20069;-76
2021/07/01 03:31:46;;;;;;;7.10;1.65;;;12.50;99.90;;;;;;5031187;28;20029;-76
2021/07/01 03:34:11;;;;;;;2.22;1.60;;;12.50;99.90;;;;;;5049042;28;20039;-75
2021/07/01 03:36:37;;;;;;;3.28;1.77;;;12.50;99.90;;;;;;5048739;28;20469;-76
2021/07/01 03:39:05;;;;;;;2.53;1.73;;;12.40;99.90;;;;;;5030835;28;20040;-76
2021/07/01 03:41:31;;;;;;;2.45;1.80;;;12.40;99.90;;;;;;5048858;28;20505;-76
2021/07/01 03:43:56;;;;;;;2.38;1.80;;;12.40;99.90;;;;;;5035107;28;20139;-76
2021/07/01 03:46:22;;;;;;;2.60;1.80;;;12.40;99.90;;;;;;5049256;28;20033;-75
2021/07/01 03:48:47;;;;;;;3.20;1.75;;;12.40;99.90;;;;;;5048672;28;20098;-76
2021/07/01 03:51:13;;;;;;;2.53;1.63;;;12.40;99.90;;;;;;5049020;28;20149;-76
2021/07/01 03:53:39;;;;;;;2.67;1.80;;;12.40;99.90;;;;;;5048694;28;20025;-76
2021/07/01 03:56:04;;;;;;;2.00;1.52;;;12.40;99.90;;;;;;5048843;28;20021;-76
2021/07/01 03:58:30;;;;;;;2.17;1.80;;;12.50;99.90;;;;;;5048791;28;20190;-76
2021/07/01 04:00:55;;;;;;;3.50;1.90;;;12.50;99.90;;;;;;5048701;28;20048;-76
2021/07/01 04:03:21;;;;;;;2.03;1.70;;;12.40;99.90;;;;;;5048728;28;20033;-76
2021/07/01 04:05:47;;;;;;;2.38;1.85;;;12.50;99.90;;;;;;5044946;28;20029;-76
2021/07/01 04:08:12;;;;;;;2.35;2.00;;;12.50;99.90;;;;;;5038770;28;20036;-75
2021/07/01 04:10:38;;;;;;;2.58;1.83;;;12.50;99.90;;;;;;5048521;28;20080;-75
2021/07/01 04:13:04;;;;;;;2.88;2.35;;;12.40;99.90;;;;;;5048442;28;20017;-75
2021/07/01 04:15:29;;;;;;;4.45;2.20;;;12.40;99.90;;;;;;5047825;28;20082;-75
2021/07/01 04:17:55;;;;;;;3.15;2.40;;;12.30;99.90;;;;;;5041636;28;20069;-75
2021/07/01 04:20:21;;;;;;;2.72;2.03;;;12.30;99.90;;;;;;5019619;28;20656;-75
2021/07/01 04:22:46;;;;;;;4.13;2.28;;;12.30;99.90;;;;;;5039823;28;20064;-75
2021/07/01 04:25:12;;;;;;;3.35;2.40;;;12.20;99.90;;;;;;5043041;28;20577;-75
2021/07/01 04:27:38;;;;;;;2.50;2.20;;;12.20;99.90;;;;;;5046196;28;20115;-76
2021/07/01 04:30:05;;;;;;;5.30;2.42;;;12.30;99.90;;;;;;5045967;28;20568;-76
2021/07/01 04:32:31;;;;;;;3.83;2.33;;;12.30;99.90;;;;;;5039037;28;20044;-76
2021/07/01 04:34:57;;;;;;;3.75;2.45;;;12.30;99.90;;;;;;5033864;28;20025;-76
2021/07/01 04:37:22;;;;;;;3.35;2.67;;;12.40;99.90;;;;;;5040287;28;20104;-76
2021/07/01 04:39:48;;;;;;;3.30;2.50;;;12.30;99.90;;;;;;5032623;28;20083;-76
2021/07/01 04:42:14;;;;;;;3.03;2.50;;;12.30;99.90;;;;;;5041091;28;20499;-72
2021/07/01 04:44:40;;;;;;;3.25;2.53;;;12.40;99.90;;;;;;5054634;28;20057;-72
2021/07/01 04:47:05;;;;;;;4.38;2.70;;;12.40;99.90;;;;;;5019396;28;20041;-73
2021/07/01 04:49:31;;;;;;;3.95;2.58;;;12.50;99.90;;;;;;5049661;28;20025;-72
2021/07/01 04:51:56;;;;;;;4.45;2.80;;;12.50;99.90;;;;;;5054046;28;20029;-72
2021/07/01 04:54:22;;;;;;;3.78;2.72;;;12.50;99.90;;;;;;5054269;28;20025;-72
2021/07/01 04:56:48;;;;;;;3.53;2.58;;;12.50;99.90;;;;;;5054453;28;20095;-72
2021/07/01 04:59:18;;;;;;;3.80;2.75;;;12.60;99.90;;;;;;5053141;28;20353;-74
2021/07/01 05:01:44;;;;;;;4.55;2.72;;;12.60;99.90;;;;;;5041602;28;20426;-74
2021/07/01 05:04:11;;;;;;;8.02;3.78;;;12.60;99.90;;;;;;5028844;28;20080;-74
2021/07/01 05:06:38;;;;;;;4.80;2.63;;;12.60;99.90;;;;;;5029949;28;20363;-74
2021/07/01 05:09:05;;;;;;;4.40;2.60;;;12.50;99.90;;;;;;5042597;28;20033;-75
2021/07/01 05:11:31;;;;;;;4.82;3.47;;;12.50;99.90;;;;;;5028879;28;20040;-75
2021/07/01 05:13:57;;;;;;;4.07;2.95;;;12.60;99.90;;;;;;5046654;28;20033;-74
2021/07/01 05:16:24;;;;;;;4.32;3.20;;;12.60;99.90;;;;;;5046548;28;20025;-75
2021/07/01 05:18:49;;;;;;;5.45;3.05;;;12.60;99.90;;;;;;5046799;28;20056;-75
2021/07/01 05:21:15;;;;;;;4.15;2.92;;;12.60;99.90;;;;;;5049643;28;20044;-71
2021/07/01 05:23:40;;;;;;;3.92;2.50;;;12.60;99.90;;;;;;5053169;28;20389;-71
2021/07/01 05:26:06;;;;;;;3.40;2.72;;;12.50;99.90;;;;;;5053316;28;20060;-72
2021/07/01 05:28:32;;;;;;;3.13;2.42;;;12.50;99.90;;;;;;5052880;28;20428;-72
2021/07/01 05:30:57;;;;;;;4.28;2.72;;;12.50;99.90;;;;;;5053005;28;20056;-72
2021/07/01 05:33:23;;;;;;;3.35;2.80;;;12.60;99.90;;;;;;5052848;28;20023;-72
2021/07/01 05:35:49;;;;;;;4.00;2.58;;;12.50;99.90;;;;;;5051692;28;20025;-74
2021/07/01 05:38:15;;;;;;;4.45;2.85;;;12.50;99.90;;;;;;5047109;28;20032;-73
2021/07/01 05:40:40;;;;;;;3.78;2.95;;;12.50;99.90;;;;;;5048774;28;20071;-75
2021/07/01 05:43:07;;;;;;;3.53;2.58;;;12.50;99.90;;;;;;5046770;28;20029;-75
2021/07/01 05:45:33;;;;;;;3.53;3.22;;;12.60;99.90;;;;;;5045352;28;20108;-75
2021/07/01 05:47:59;;;;;;;3.60;2.80;;;12.60;99.90;;;;;;5047834;28;20021;-75
2021/07/01 05:50:27;;;;;;;4.20;2.80;;;12.70;99.90;;;;;;5046340;28;20086;-75
2021/07/01 05:53:05;;;;;;;3.83;2.65;;;12.80;99.90;;;;;;5038177;28;20128;-75
2021/07/01 05:55:32;;;;;;;3.63;2.75;;;12.90;99.90;;;;;;5035665;28;20032;-74
2021/07/01 05:57:58;;;;;;;3.60;2.75;;;13.00;99.90;;;;;;5039557;28;20028;-74
2021/07/01 06:00:24;;;;;;;4.00;2.65;;;13.10;99.90;;;;;;5052553;28;20361;-72
2021/07/01 06:02:50;;;;;;;3.35;2.65;;;13.10;99.90;;;;;;5040106;28;20112;-75
2021/07/01 06:05:16;;;;;;;5.68;2.45;;;13.20;99.90;;;;;;5045754;28;20095;-71
2021/07/01 06:07:46;;;;;;;5.22;2.75;;;13.20;99.90;;;;;;5040832;28;20037;-75
2021/07/01 06:10:14;;;;;;;8.30;3.20;;;13.20;99.90;;;;;;5039679;28;20442;-76
2021/07/01 06:12:41;;;;;;;4.43;2.33;;;13.20;99.90;;;;;;5046931;28;20109;-76
2021/07/01 06:15:07;;;;;;;3.40;2.38;;;13.10;99.90;;;;;;5046804;28;20043;-75
2021/07/01 06:17:34;;;;;;;3.45;2.80;;;13.10;99.90;;;;;;5027452;28;20057;-75
2021/07/01 06:20:01;;;;;;;3.85;3.13;;;13.10;99.90;;;;;;5051839;28;20102;-71
2021/07/01 06:22:28;;;;;;;3.10;2.47;;;13.20;99.90;;;;;;5046684;28;20087;-75
2021/07/01 06:24:55;;;;;;;3.47;2.97;;;13.30;99.90;;;;;;5045636;28;20693;-74
2021/07/01 06:30:03;;;;;;;3.10;2.50;;;13.20;99.90;;;;;;5040077;28;20064;-76
2021/07/01 06:32:31;;;;;;;4.05;2.58;;;13.30;99.90;;;;;;5033612;28;20029;-73
2021/07/01 06:34:56;;;;;;;4.18;2.50;;;13.40;99.90;;;;;;5052762;28;20057;-75
2021/07/01 06:37:23;;;;;;;4.57;2.65;;;13.40;99.90;;;;;;5030274;28;20040;-72
2021/07/01 06:39:50;;;;;;;4.38;2.97;;;13.40;99.90;;;;;;5034671;28;20025;-72
2021/07/01 06:42:21;;;;;;;4.10;2.90;;;13.30;99.90;;;;;;5053255;28;20041;-72
2021/07/01 06:44:47;;;;;;;3.13;2.78;;;13.40;99.90;;;;;;5052982;28;20021;-72
2021/07/01 06:47:14;;;;;;;5.15;3.20;;;13.40;99.90;;;;;;5048939;28;20086;-76
2021/07/01 06:49:41;;;;;;;4.90;3.10;;;13.40;99.90;;;;;;5051202;28;20397;-72
2021/07/01 06:52:12;;;;;;;6.03;3.35;;;13.50;99.90;;;;;;5051011;28;20056;-71
2021/07/01 06:54:40;;;;;;;4.00;2.95;;;13.50;99.90;;;;;;5047934;28;20060;-76
2021/07/01 06:57:06;;;;;;;4.18;2.80;;;13.50;99.90;;;;;;5046809;28;20028;-71
2021/07/01 06:59:31;;;;;;;3.63;3.00;;;13.50;99.90;;;;;;5052113;28;20499;-71
2021/07/01 07:01:58;;;;;;;4.03;2.90;;;13.50;99.90;;;;;;5052269;28;20025;-72
2021/07/01 07:04:24;;;;;;;3.60;2.80;;;13.50;99.90;;;;;;5052326;28;20033;-72
2021/07/01 07:06:49;;;;;;;4.05;2.90;;;13.60;99.90;;;;;;5052141;28;20067;-72
2021/07/01 07:09:16;;;;;;;3.30;2.83;;;13.60;99.90;;;;;;5052192;28;20033;-72
2021/07/01 07:11:42;;;;;;;3.33;2.20;;;13.60;99.90;;;;;;5052250;28;20113;-71
2021/07/01 07:14:08;;;;;;;10.13;2.75;;;13.70;99.90;;;;;;5052012;28;20032;-72
2021/07/01 07:16:40;;;;;;;3.70;2.75;;;13.80;99.90;;;;;;5046394;28;20017;-72
2021/07/01 07:19:09;;;;;;;3.33;2.05;;;13.90;99.90;;;;;;5052177;28;20397;-72
2021/07/01 07:21:42;;;;;;;2.88;2.15;;;14.00;99.90;;;;;;5052456;28;20135;-72
2021/07/01 07:24:09;;;;;;;3.15;2.20;;;14.20;99.90;;;;;;5052111;28;20021;-72
2021/07/01 07:26:36;;;;;;;3.40;2.10;;;14.30;99.90;;;;;;5052397;28;20021;-72
2021/07/01 07:29:02;;;;;;;2.75;2.20;;;14.30;99.90;;;;;;5052352;28;20051;-72
2021/07/01 07:31:30;;;;;;;2.45;2.10;;;14.30;99.90;;;;;;5053179;28;20025;-72
2021/07/01 07:34:00;;;;;;;2.90;1.90;;;14.30;99.90;;;;;;5055599;28;20074;-72
2021/07/01 07:36:27;;;;;;;3.67;2.17;;;14.30;99.90;;;;;;5055660;28;20063;-72
2021/07/01 07:38:56;;;;;;;2.60;1.85;;;14.30;99.90;;;;;;5055638;28;20025;-72
2021/07/01 07:41:24;;;;;;;2.58;1.63;;;14.30;99.90;;;;;;5048266;28;20051;-71
2021/07/01 07:43:51;;;;;;;2.83;1.70;;;14.20;99.90;;;;;;5044322;28;20469;-77
2021/07/01 07:46:21;;;;;;;3.63;1.70;;;14.30;99.90;;;;;;5045671;28;20099;-77
2021/07/01 07:48:47;;;;;;;2.40;1.63;;;14.40;99.90;;;;;;5046325;28;20032;-77
2021/07/01 07:51:17;;;;;;;3.95;1.80;;;14.30;99.90;;;;;;5038863;28;20098;-77
2021/07/01 07:53:47;;;;;;;2.10;1.70;;;14.30;99.90;;;;;;5045931;28;20029;-77
2021/07/01 07:56:15;;;;;;;2.78;1.75;;;14.30;99.90;;;;;;5047439;28;20474;-77
2021/07/01 07:58:50;;;;;;;3.78;2.00;;;14.20;99.90;;;;;;5048446;28;20125;-76
2021/07/01 08:01:15;;;;;;;2.45;1.60;;;14.20;99.90;;;;;;5049021;28;20029;-76
2021/07/01 08:03:42;;;;;;;1.70;1.40;;;14.10;99.90;;;;;;5040374;28;20119;-76
2021/07/01 08:06:11;;;;;;;4.88;1.60;;;14.10;99.90;;;;;;5048559;28;20501;-76
2021/07/01 08:08:38;;;;;;;4.82;1.75;;;14.10;99.90;;;;;;5046611;28;20030;-76
2021/07/01 08:11:07;;;;;;;1.65;1.30;;;14.10;99.90;;;;;;5047602;28;20032;-76
2021/07/01 08:13:33;;;;;;;3.30;1.60;;;14.30;99.90;;;;;;5048893;28;20029;-76
2021/07/01 08:15:59;;;;;;;1.95;1.58;;;14.30;99.90;;;;;;5047527;28;20056;-76
2021/07/01 08:18:39;;;;;;;3.38;1.80;;;14.30;99.90;;;;;;5047651;28;20536;-76
2021/07/01 08:21:13;;;;;;;4.65;1.90;;;14.40;99.90;;;;;;5047752;28;20744;-76
2021/07/01 08:23:41;;;;;;;2.20;1.50;;;14.50;99.90;;;;;;5039321;28;20029;-76
2021/07/01 08:26:10;;;;;;;3.97;1.60;;;14.50;99.90;;;;;;5044468;28;20035;-76
2021/07/01 08:28:36;;;;;;;2.00;1.63;;;14.60;99.90;;;;;;5026949;28;20648;-77
2021/07/01 08:31:20;;;;;;;2.72;1.83;;;14.50;99.90;;;;;;5052602;28;20086;-71
2021/07/01 08:33:48;;;;;;;4.43;1.80;;;14.50;99.90;;;;;;5049141;28;20112;-72
2021/07/01 08:36:20;;;;;;;2.55;1.77;;;14.40;99.90;;;;;;5034637;28;20417;-72
2021/07/01 08:38:49;;;;;;;2.22;1.65;;;14.50;99.90;;;;;;5035363;28;20026;-72
2021/07/01 08:41:20;;;;;;;3.17;1.88;;;14.50;99.90;;;;;;5034742;28;20021;-71
2021/07/01 08:44:01;;;;;;;2.45;1.77;;;14.50;99.90;;;;;;5033216;28;20052;-71
2021/07/01 08:46:49;;;;;;;5.18;2.00;;;14.50;99.90;;;;;;5035303;28;20025;-71
2021/07/01 08:49:26;;;;;;;6.93;1.90;;;14.50;99.90;;;;;;5024334;28;20091;-77
2021/07/01 08:51:56;;;;;;;3.17;1.83;;;14.60;99.90;;;;;;5043211;28;20033;-77
2021/07/01 08:54:22;;;;;;;4.47;2.72;;;14.70;99.90;;;;;;5046970;28;20048;-77
2021/07/01 08:56:48;;;;;;;3.53;2.10;;;14.70;99.90;;;;;;5042000;28;20029;-77
2021/07/01 08:59:17;;;;;;;4.13;2.20;;;14.80;99.90;;;;;;5046579;28;20027;-76
2021/07/01 09:02:06;;;;;;;3.83;2.20;;;14.90;99.90;;;;;;5045227;28;20025;-76
2021/07/01 09:04:50;;;;;;;3.83;2.10;;;14.90;99.90;;;;;;5043375;28;20052;-77
2021/07/01 09:07:21;;;;;;;3.05;2.47;;;14.90;99.90;;;;;;5043200;28;20029;-76
2021/07/01 09:09:53;;;;;;;4.00;2.47;;;14.90;99.90;;;;;;5044537;28;20095;-76
2021/07/01 09:12:25;;;;;;;3.05;2.40;;;14.80;99.90;;;;;;5046726;28;20033;-76
2021/07/01 09:14:57;;;;;;;5.72;2.65;;;14.70;99.90;;;;;;5045527;28;20032;-76
2021/07/01 09:17:29;;;;;;;4.00;2.40;;;14.70;99.90;;;;;;5051724;28;20021;-71
2021/07/01 09:19:59;;;;;;;4.53;2.67;;;14.70;99.90;;;;;;5053885;28;20048;-72
2021/07/01 09:22:26;;;;;;;3.28;2.45;;;14.80;99.90;;;;;;5053881;28;20013;-72
2021/07/01 09:24:53;;;;;;;4.00;2.47;;;14.70;99.90;;;;;;5053805;28;20024;-72
2021/07/01 09:27:19;;;;;;;3.03;2.35;;;14.70;99.90;;;;;;5054019;28;20087;-72
2021/07/01 09:29:47;;;;;;;3.50;2.60;;;14.70;99.90;;;;;;5053492;28;20111;-73
2021/07/01 09:32:14;;;;;;;3.38;2.60;;;14.80;99.90;;;;;;5052423;28;20032;-75
2021/07/01 09:34:41;;;;;;;3.15;2.40;;;14.90;99.90;;;;;;5052419;28;20029;-73
2021/07/01 09:37:08;;;;;;;3.15;2.28;;;15.00;99.90;;;;;;5053362;28;20107;-72
2021/07/01 09:39:34;;;;;;;2.97;2.45;;;15.20;99.90;;;;;;5053451;28;20408;-73
2021/07/01 09:42:02;;;;;;;3.58;2.60;;;15.50;99.90;;;;;;5053753;28;20102;-73
2021/07/01 09:44:31;;;;;;;2.20;1.88;;;15.70;99.90;;;;;;5053345;28;20025;-73
2021/07/01 09:46:58;;;;;;;4.53;2.10;;;15.90;99.90;;;;;;5053801;28;20446;-73
2021/07/01 09:49:33;;;;;;;3.08;2.17;;;16.00;99.90;;;;;;5053341;28;20044;-72
2021/07/01 09:52:11;;;;;;;2.88;2.00;;;16.20;99.90;;;;;;5051267;28;20017;-72
2021/07/01 09:54:39;;;;;;;3.13;1.73;;;16.40;99.90;;;;;;5050443;28;20370;-76
2021/07/01 09:57:17;;;;;;;2.08;1.73;;;16.50;99.90;;;;;;5044730;28;20025;-76
2021/07/01 09:59:49;;;;;;;3.92;2.00;;;16.60;99.90;;;;;;5043841;28;20074;-76
2021/07/01 10:02:23;;;;;;;2.33;1.90;;;16.80;99.90;;;;;;5044443;28;20373;-76
2021/07/01 10:04:50;;;;;;;2.25;1.77;;;17.10;99.90;;;;;;5047280;28;20074;-72
2021/07/01 10:07:19;;;;;;;2.90;1.95;;;17.00;99.90;;;;;;5050472;28;20028;-73
2021/07/01 10:09:46;;;;;;;3.20;1.80;;;17.00;99.90;;;;;;5042929;28;20838;-76
2021/07/01 10:12:17;;;;;;;3.88;1.85;;;16.80;99.90;;;;;;5045493;28;20033;-76
2021/07/01 10:14:45;;;;;;;3.30;2.10;;;16.60;99.90;;;;;;5044733;28;20025;-76
2021/07/01 10:17:13;;;;;;;3.60;2.30;;;16.60;99.90;;;;;;5027841;28;20032;-76
2021/07/01 10:19:39;;;;;;;3.00;1.83;;;16.60;99.90;;;;;;5051044;28;20391;-72
2021/07/01 10:22:08;;;;;;;3.03;1.67;;;16.70;99.90;;;;;;5053266;28;20319;-72
2021/07/01 10:24:58;;;;;;;3.33;1.88;;;16.70;99.90;;;;;;5048373;28;20036;-72
2021/07/01 10:27:41;;;;;;;3.05;1.98;;;16.70;99.90;;;;;;5032713;28;20343;-71
2021/07/01 10:30:23;;;;;;;3.10;2.10;;;16.70;99.90;;;;;;5024430;28;20032;-76
2021/07/01 10:32:51;;;;;;;2.67;1.80;;;16.70;99.90;;;;;;5045392;28;20033;-76
2021/07/01 10:35:17;;;;;;;2.10;1.75;;;16.60;99.90;;;;;;5036674;28;20556;-76
2021/07/01 10:38:00;;;;;;;3.25;1.90;;;16.70;99.90;;;;;;5045227;28;20498;-76
2021/07/01 10:40:27;;;;;;;2.40;1.92;;;16.80;99.90;;;;;;5044090;28;20056;-76
2021/07/01 10:42:55;;;;;;;2.45;2.00;;;17.00;99.90;;;;;;5028306;28;20068;-76
2021/07/01 10:45:21;;;;;;;7.95;1.83;;;17.10;99.90;;;;;;5027183;28;20345;-77
2021/07/01 10:47:47;;;;;;;3.58;2.35;;;17.20;99.90;;;;;;5025314;28;20800;-76
2021/07/01 10:50:19;;;;;;;3.88;2.03;;;17.20;99.90;;;;;;5046029;28;20101;-76
2021/07/01 10:52:45;;;;;;;4.25;2.20;;;17.30;99.90;;;;;;5046186;28;20119;-77
2021/07/01 10:55:12;;;;;;;3.75;1.90;;;17.70;99.90;;;;;;5047511;28;20535;-71
2021/07/01 10:57:47;;;;;;;3.05;2.20;;;17.80;99.90;;;;;;5034703;28;20036;-71
2021/07/01 11:00:13;;;;;;;3.15;2.25;;;17.90;99.90;;;;;;5051481;28;20361;-71
2021/07/01 11:02:46;;;;;;;6.65;2.20;;;17.90;99.90;;;;;;5046239;28;20018;-71
2021/07/01 11:05:12;;;;;;;3.70;1.90;;;17.90;99.90;;;;;;5043164;28;20516;-76
2021/07/01 11:07:44;;;;;;;3.15;2.28;;;17.70;99.90;;;;;;5047817;28;20100;-71
2021/07/01 11:10:10;;;;;;;3.90;2.40;;;17.80;99.90;;;;;;5056257;28;20029;-71
2021/07/01 11:12:47;;;;;;;4.60;2.20;;;17.70;99.90;;;;;;5054911;28;20025;-71
2021/07/01 11:15:13;;;;;;;2.67;2.08;;;17.60;99.90;;;;;;5056113;28;20042;-71
2021/07/01 11:17:41;;;;;;;3.30;2.63;;;17.50;99.90;;;;;;5055965;28;20025;-71
2021/07/01 11:20:23;;;;;;;3.05;2.47;;;17.40;99.90;;;;;;5050338;28;20131;-76
2021/07/01 11:22:52;;;;;;;3.95;2.30;;;17.20;99.90;;;;;;5047290;28;20083;-76
2021/07/01 11:25:37;;;;;;;2.72;2.17;;;17.10;99.90;;;;;;5048207;28;20397;-76
2021/07/01 11:28:21;;;;;;;;;;;16.90;99.90;;;;;;5048274;28;20021;-76
2021/07/01 11:30:53;;;;;;;5.15;2.50;;;16.80;99.90;;;;;;5048302;28;19912;-76
2021/07/01 11:33:19;;;;;;;2.90;2.20;;;16.80;99.90;;;;;;5038743;28;20021;-71
2021/07/01 11:35:46;;;;;;;4.68;2.38;;;16.60;99.90;;;;;;5055074;28;20036;-76
2021/07/01 11:38:29;;;;;;;4.95;2.40;;;16.60;99.90;;;;;;5048874;28;20426;-76
2021/07/01 11:40:56;;;;;;;3.47;2.38;;;16.60;99.90;;;;;;5044950;28;20029;-76
2021/07/01 11:43:23;;;;;;;3.90;2.65;;;16.60;99.90;;;;;;5048223;28;20428;-76
2021/07/01 11:45:51;;;;;;;2.63;2.13;;;16.80;99.90;;;;;;5048343;28;20815;-76
2021/07/01 11:48:19;;;;;;;3.17;2.17;;;17.00;99.90;;;;;;5053010;28;20092;-71
2021/07/01 11:50:48;;;;;;;3.80;2.47;;;17.10;99.90;;;;;;5055493;28;20454;-71
2021/07/01 11:53:14;;;;;;;5.30;2.58;;;17.40;99.90;;;;;;5055592;28;20108;-71
2021/07/01 11:55:40;;;;;;;4.78;2.53;;;17.60;99.90;;;;;;5053302;28;20511;-76
2021/07/01 11:58:06;;;;;;;3.42;2.20;;;17.60;99.90;;;;;;5044430;28;20021;-76
2021/07/01 12:00:32;;;;;;;2.83;2.45;;;17.60;99.90;;;;;;5054317;28;20025;-70
2021/07/01 12:02:58;;;;;;;3.33;2.40;;;17.60;99.90;;;;;;5055383;28;20131;-71
2021/07/01 12:05:24;;;;;;;3.72;2.40;;;17.40;99.90;;;;;;5056149;28;20025;-71
2021/07/01 12:07:50;;;;;;;5.05;2.60;;;17.30;99.90;;;;;;5052963;28;20102;-74
2021/07/01 12:10:20;;;;;;;3.63;2.53;;;17.20;99.90;;;;;;5054520;28;20025;-70
2021/07/01 12:12:45;;;;;;;7.00;3.38;;;17.10;99.90;;;;;;5055195;28;20041;-71
2021/07/01 12:15:13;;;;;;;5.85;3.45;;;16.90;99.90;;;;;;5047384;28;20043;-75
2021/07/01 12:18:02;;;;;;;5.82;3.83;;;16.60;99.90;;;;;;5044582;28;20048;-71
2021/07/01 12:20:55;;;;;;;5.95;3.50;;;16.20;99.90;;;;;;5054874;28;20464;-72
2021/07/01 12:23:23;;;;;;;6.88;3.85;;;16.10;99.90;;;;;;5054980;28;20032;-71
2021/07/01 12:25:56;;;;;;;5.97;3.90;;;16.00;99.90;;;;;;5045213;28;20017;-74
2021/07/01 12:28:25;;;;;;;4.50;3.70;;;16.10;99.90;;;;;;5048544;28;20021;-75
2021/07/01 12:30:56;;;;;;;5.75;3.70;;;16.10;99.90;;;;;;5051176;28;20029;-72
2021/07/01 12:33:40;;;;;;;5.80;3.50;;;16.20;99.90;;;;;;5054740;28;20024;-72
2021/07/01 12:36:50;;;;;;;4.88;3.13;;;16.30;99.90;;;;;;5055207;28;20075;-72
2021/07/01 12:39:21;;;;;;;5.82;3.60;;;16.30;99.90;;;;;;5051311;28;20025;-75
2021/07/01 12:42:07;;;;;;;5.15;3.30;;;16.10;99.90;;;;;;5046761;28;20029;-75
2021/07/01 12:44:38;;;;;;;4.30;3.05;;;16.20;99.90;;;;;;5042356;28;20036;-75
2021/07/01 12:47:36;;;;;;;3.67;2.72;;;16.10;99.90;;;;;;5047397;28;20029;-76
2021/07/01 12:50:04;;;;;;;3.92;2.30;;;16.00;99.90;;;;;;5042921;28;20033;-75
2021/07/01 12:52:39;;;;;;;4.05;2.65;;;16.00;99.90;;;;;;5046234;28;20025;-75
2021/07/01 12:55:07;;;;;;;4.88;2.67;;;16.00;99.90;;;;;;5040244;28;20025;-75
2021/07/01 12:57:33;;;;;;;4.25;2.75;;;15.90;99.90;;;;;;5033489;28;20145;-72